createdAt,value
2022-10-20T00:01:55.616Z,1.42
2022-10-20T00:04:27.616Z,1.60
2022-10-20T00:06:59.631Z,1.40
2022-10-20T00:09:31.614Z,1.45
2022-10-20T00:12:03.448Z,1.22
2022-10-20T00:14:35.590Z,1.70
2022-10-20T00:17:07.622Z,1.40
2022-10-20T00:19:39.602Z,1.40
2022-10-20T00:22:11.778Z,1.62
2022-10-20T00:24:43.825Z,1.30
2022-10-20T00:27:16.112Z,1.90
2022-10-20T00:29:49.791Z,1.82
2022-10-20T00:32:21.651Z,2.00
2022-10-20T00:34:53.488Z,1.98
2022-10-20T00:37:25.444Z,1.80
2022-10-20T00:39:57.352Z,1.50
2022-10-20T00:42:29.442Z,1.60
2022-10-20T00:45:01.997Z,1.27
2022-10-20T00:47:36.943Z,1.65
2022-10-20T00:50:11.989Z,1.95
2022-10-20T00:52:46.551Z,1.82
2022-10-20T00:55:24.241Z,1.90
2022-10-20T00:57:58.455Z,1.47
2022-10-20T01:00:30.578Z,1.72
2022-10-20T01:03:05.058Z,1.70
2022-10-20T01:08:07.737Z,1.90
2022-10-20T01:11:14.007Z,1.62
2022-10-20T01:13:51.575Z,1.67
2022-10-20T01:16:41.488Z,1.80
2022-10-20T01:19:35.418Z,1.55
2022-10-20T01:22:16.264Z,1.65
2022-10-20T01:25:08.911Z,1.70
2022-10-20T01:27:47.191Z,1.90
2022-10-20T01:30:21.772Z,2.02
2022-10-20T01:33:02.194Z,1.60
2022-10-20T01:35:42.567Z,1.85
2022-10-20T01:38:26.073Z,1.52
2022-10-20T01:41:03.644Z,2.20
2022-10-20T01:43:38.410Z,1.60
2022-10-20T01:46:13.018Z,1.30
2022-10-20T01:48:47.329Z,1.30
2022-10-20T01:51:19.732Z,1.67
2022-10-20T01:53:51.829Z,1.60
2022-10-20T01:56:29.583Z,1.80
2022-10-20T01:59:23.566Z,1.70
2022-10-20T02:02:14.853Z,1.42
2022-10-20T02:04:55.536Z,1.65
2022-10-20T02:07:30.379Z,1.17
2022-10-20T02:10:10.836Z,1.70
2022-10-20T02:12:45.303Z,1.60
2022-10-20T02:15:21.903Z,1.65
2022-10-20T02:17:56.705Z,1.90
2022-10-20T02:20:30.769Z,1.55
2022-10-20T02:23:05.652Z,1.77
2022-10-20T02:25:39.069Z,2.35
2022-10-20T02:28:14.078Z,2.15
2022-10-20T02:30:46.705Z,1.55
2022-10-20T02:33:19.767Z,1.67
2022-10-20T02:35:54.478Z,2.05
2022-10-20T02:38:27.016Z,1.90
2022-10-20T02:40:59.212Z,2.77
2022-10-20T02:43:31.087Z,2.60
2022-10-20T02:46:02.983Z,2.72
2022-10-20T02:48:34.910Z,2.67
2022-10-20T02:51:07.591Z,3.15
2022-10-20T02:53:39.873Z,3.17
2022-10-20T02:56:12.042Z,3.25
2022-10-20T02:58:44.240Z,3.52
2022-10-20T03:01:16.312Z,3.58
2022-10-20T03:03:48.253Z,2.87
2022-10-20T03:06:20.377Z,3.62
2022-10-20T03:08:52.353Z,3.58
2022-10-20T03:11:24.343Z,3.20
2022-10-20T03:13:56.790Z,3.77
2022-10-20T03:16:28.951Z,3.80
2022-10-20T03:19:04.585Z,3.47
2022-10-20T03:21:34.713Z,4.47
2022-10-20T03:24:07.134Z,3.52
2022-10-20T03:26:39.240Z,4.10
2022-10-20T03:29:11.235Z,4.15
2022-10-20T03:31:43.418Z,4.35
2022-10-20T03:34:15.548Z,4.80
2022-10-20T03:36:47.674Z,4.42
2022-10-20T03:39:20.431Z,4.40
2022-10-20T03:41:52.779Z,4.10
2022-10-20T03:44:25.031Z,4.72
2022-10-20T03:46:56.990Z,4.33
2022-10-20T03:49:28.911Z,4.67
2022-10-20T03:52:00.993Z,4.75
2022-10-20T03:54:33.227Z,3.72
2022-10-20T03:57:07.636Z,4.92
2022-10-20T03:59:39.271Z,5.10
2022-10-20T04:02:14.133Z,4.40
2022-10-20T04:04:46.325Z,4.22
2022-10-20T04:07:18.726Z,4.12
2022-10-20T04:09:50.858Z,4.90
2022-10-20T04:12:23.695Z,4.65
2022-10-20T04:14:55.650Z,4.97
2022-10-20T04:17:27.794Z,4.85
2022-10-20T04:20:00.022Z,4.83
2022-10-20T04:22:34.299Z,5.53
2022-10-20T04:25:07.657Z,4.35
2022-10-20T04:27:43.287Z,4.12
2022-10-20T04:30:15.225Z,4.40
2022-10-20T04:32:47.327Z,4.62
2022-10-20T04:35:19.567Z,4.50
2022-10-20T04:37:51.443Z,5.03
2022-10-20T04:40:23.425Z,4.90
2022-10-20T04:42:55.450Z,5.05
2022-10-20T04:45:27.787Z,5.37
2022-10-20T04:47:59.949Z,7.67
2022-10-20T04:50:32.227Z,6.45
2022-10-20T04:53:06.635Z,5.93
2022-10-20T04:55:39.009Z,4.97
2022-10-20T04:58:10.997Z,5.12
2022-10-20T05:00:43.425Z,4.65
2022-10-20T05:03:15.410Z,4.90
2022-10-20T05:05:49.792Z,5.47
2022-10-20T05:10:52.683Z,6.08
2022-10-20T05:13:24.868Z,6.17
2022-10-20T05:15:56.987Z,7.70
2022-10-20T05:18:30.291Z,5.78
2022-10-20T05:21:09.312Z,4.83
2022-10-20T05:23:42.721Z,5.60
2022-10-20T05:26:17.756Z,5.65
2022-10-20T05:28:52.094Z,5.10
2022-10-20T05:31:24.840Z,4.65
2022-10-20T05:33:58.156Z,4.90
2022-10-20T05:36:30.071Z,4.97
2022-10-20T05:39:02.234Z,4.40
2022-10-20T05:41:38.101Z,4.12
2022-10-20T05:44:10.013Z,3.35
2022-10-20T05:46:42.847Z,4.60
2022-10-20T05:49:17.706Z,3.70
2022-10-20T05:54:20.447Z,4.37
2022-10-20T05:56:52.351Z,3.92
2022-10-20T05:59:24.409Z,2.90
2022-10-20T06:01:56.551Z,3.05
2022-10-20T06:04:29.030Z,2.22
2022-10-20T06:07:00.944Z,2.42
2022-10-20T06:09:33.444Z,2.33
2022-10-20T06:12:06.024Z,2.50
2022-10-20T06:14:38.000Z,2.42
2022-10-20T06:17:11.303Z,2.37
2022-10-20T06:19:43.522Z,1.98
2022-10-20T06:22:15.608Z,2.42
2022-10-20T06:24:47.835Z,2.58
2022-10-20T06:27:19.794Z,3.02
2022-10-20T06:29:51.854Z,2.60
2022-10-20T06:32:23.855Z,2.33
2022-10-20T06:34:55.989Z,1.65
2022-10-20T06:37:28.061Z,2.12
2022-10-20T06:40:00.215Z,2.15
2022-10-20T06:42:33.094Z,2.17
2022-10-20T06:45:05.289Z,2.10
2022-10-20T06:47:37.647Z,1.80
2022-10-20T06:50:10.271Z,1.87
2022-10-20T06:52:42.426Z,1.80
2022-10-20T06:55:14.752Z,2.30
2022-10-20T06:57:46.808Z,1.80
2022-10-20T07:00:19.145Z,2.40
2022-10-20T07:02:51.280Z,2.50
2022-10-20T07:05:23.510Z,2.60
2022-10-20T07:07:55.997Z,2.00
2022-10-20T07:10:27.895Z,1.98
2022-10-20T07:12:59.902Z,2.83
2022-10-20T07:15:32.256Z,3.40
2022-10-20T07:18:04.228Z,3.02
2022-10-20T07:20:36.077Z,2.12
2022-10-20T07:23:08.147Z,2.35
2022-10-20T07:28:06.976Z,1.20
2022-10-20T07:30:43.599Z,1.75
2022-10-20T07:33:15.913Z,1.50
2022-10-20T07:35:50.390Z,1.70
2022-10-20T07:38:22.655Z,1.60
2022-10-20T07:40:55.725Z,2.60
2022-10-20T07:43:28.514Z,1.63
2022-10-20T07:46:00.734Z,1.87
2022-10-20T07:48:33.857Z,1.50
2022-10-20T07:51:27.117Z,1.55
2022-10-20T07:54:11.633Z,1.67
2022-10-20T07:56:45.000Z,2.05
2022-10-20T07:59:17.782Z,1.82
2022-10-20T08:01:49.991Z,1.90
2022-10-20T08:04:22.421Z,1.80
2022-10-20T08:06:54.411Z,1.40
2022-10-20T08:09:26.912Z,2.72
2022-10-20T08:11:58.937Z,2.83
2022-10-20T08:14:35.482Z,1.62
2022-10-20T08:17:07.474Z,2.20
2022-10-20T08:19:39.570Z,2.92
2022-10-20T08:22:11.708Z,2.80
2022-10-20T08:24:44.239Z,3.37
2022-10-20T08:27:16.609Z,2.22
2022-10-20T08:29:59.910Z,1.95
2022-10-20T08:32:23.515Z,1.90
2022-10-20T08:34:55.596Z,1.60
2022-10-20T08:37:27.537Z,2.12
2022-10-20T08:39:59.632Z,2.15
2022-10-20T08:42:36.073Z,1.70
2022-10-20T08:45:09.147Z,2.30
2022-10-20T08:47:41.597Z,1.47
2022-10-20T08:50:17.392Z,1.30
2022-10-20T08:52:55.075Z,1.30
2022-10-20T08:55:34.930Z,1.80
2022-10-20T08:58:09.361Z,1.45
2022-10-20T09:00:42.567Z,1.52
2022-10-20T09:03:24.179Z,1.30
2022-10-20T09:06:01.977Z,1.60
2022-10-20T09:08:37.401Z,0.70
2022-10-20T09:11:12.080Z,1.40
2022-10-20T09:13:44.787Z,1.60
2022-10-20T09:16:40.623Z,1.30
2022-10-20T09:19:03.402Z,0.98
2022-10-20T09:21:38.508Z,1.57
2022-10-20T09:24:10.694Z,1.37
2022-10-20T09:27:03.457Z,1.55
2022-10-20T09:29:24.935Z,1.77
2022-10-20T09:31:57.399Z,1.72
2022-10-20T09:34:36.320Z,2.30
2022-10-20T09:37:17.498Z,1.32
2022-10-20T09:39:55.349Z,1.45
2022-10-20T09:42:35.302Z,1.82
2022-10-20T09:45:10.318Z,2.65
2022-10-20T09:47:45.121Z,2.55
2022-10-20T09:50:26.054Z,1.37
2022-10-20T09:52:59.538Z,1.32
2022-10-20T09:55:34.519Z,1.42
2022-10-20T09:58:07.068Z,1.67
2022-10-20T10:00:42.095Z,1.17
2022-10-20T10:03:22.832Z,1.45
2022-10-20T10:06:00.275Z,2.08
2022-10-20T10:08:43.817Z,1.92
2022-10-20T10:11:21.766Z,1.40
2022-10-20T10:13:54.897Z,1.10
2022-10-20T10:16:27.143Z,2.47
2022-10-20T10:19:05.144Z,1.27
2022-10-20T10:21:51.166Z,1.42
2022-10-20T10:24:41.060Z,1.20
2022-10-20T10:27:25.539Z,1.22
2022-10-20T10:30:00.164Z,0.85
2022-10-20T10:32:32.974Z,1.40
2022-10-20T10:35:24.583Z,1.52
2022-10-20T10:37:57.491Z,1.20
2022-10-20T10:40:38.068Z,1.30
2022-10-20T10:43:32.433Z,1.17
2022-10-20T10:46:10.676Z,1.07
2022-10-20T10:49:17.117Z,5.17
2022-10-20T10:51:55.157Z,1.12
2022-10-20T10:54:42.066Z,1.12
2022-10-20T10:57:28.994Z,1.47
2022-10-20T11:00:03.474Z,1.10
2022-10-20T11:02:50.801Z,1.30
2022-10-20T11:05:31.504Z,1.17
2022-10-20T11:08:12.446Z,1.60
2022-10-20T11:11:04.843Z,1.35
2022-10-20T11:13:45.531Z,1.52
2022-10-20T11:16:20.410Z,1.80
2022-10-20T11:19:29.529Z,1.00
2022-10-20T11:22:22.258Z,1.10
2022-10-20T11:25:08.846Z,1.00
2022-10-20T11:27:42.295Z,1.60
2022-10-20T11:30:21.395Z,1.27
2022-10-20T11:32:59.306Z,0.70
2022-10-20T11:35:43.128Z,0.80
2022-10-20T11:38:23.916Z,0.95
2022-10-20T11:41:04.695Z,0.90
2022-10-20T11:43:48.804Z,0.88
2022-10-20T11:46:23.644Z,1.30
2022-10-20T11:49:00.360Z,0.80
2022-10-20T11:51:36.702Z,0.90
2022-10-20T11:54:14.639Z,0.90
2022-10-20T11:57:01.487Z,1.35
2022-10-20T11:59:52.478Z,1.10
2022-10-20T12:02:43.926Z,1.00
2022-10-20T12:05:22.676Z,1.25
2022-10-20T12:08:29.969Z,1.07
2022-10-20T12:11:17.010Z,1.00
2022-10-20T12:14:17.369Z,1.50
2022-10-20T12:16:58.514Z,1.57
2022-10-20T12:19:33.388Z,1.22
2022-10-20T12:22:17.425Z,0.80
2022-10-20T12:24:55.180Z,1.20
2022-10-20T12:27:28.298Z,1.15
2022-10-20T12:30:05.966Z,0.90
2022-10-20T12:32:41.183Z,1.20
2022-10-20T12:35:16.480Z,1.10
2022-10-20T12:38:05.484Z,0.75
2022-10-20T12:40:52.275Z,1.80
2022-10-20T12:43:29.954Z,1.90
2022-10-20T12:46:07.747Z,1.32
2022-10-20T12:48:43.203Z,1.15
2022-10-20T12:51:24.430Z,1.30
2022-10-20T12:53:59.178Z,1.47
2022-10-20T12:56:36.918Z,1.98
2022-10-20T12:59:27.169Z,1.50
2022-10-20T13:02:15.723Z,1.22
2022-10-20T13:05:07.254Z,1.47
2022-10-20T13:07:52.691Z,0.80
2022-10-20T13:10:33.610Z,1.65
2022-10-20T13:13:08.561Z,0.72
2022-10-20T13:15:47.756Z,0.90
2022-10-20T13:18:23.099Z,1.10
2022-10-20T13:20:58.106Z,1.27
2022-10-20T13:23:50.884Z,0.62
2022-10-20T13:26:28.841Z,1.12
2022-10-20T13:29:02.763Z,0.80
2022-10-20T13:31:37.541Z,1.35
2022-10-20T13:34:27.719Z,1.80
2022-10-20T13:37:08.932Z,1.82
2022-10-20T13:40:03.417Z,1.55
2022-10-20T13:42:38.608Z,1.10
2022-10-20T13:45:22.337Z,5.37
2022-10-20T13:48:11.939Z,1.62
2022-10-20T13:50:46.737Z,1.52
2022-10-20T13:53:22.476Z,1.90
2022-10-20T13:56:06.000Z,1.30
2022-10-20T13:58:38.433Z,1.47
2022-10-20T14:01:21.577Z,1.82
2022-10-20T14:03:54.143Z,1.07
2022-10-20T14:06:32.156Z,0.65
2022-10-20T14:09:25.471Z,0.68
2022-10-20T14:12:09.471Z,0.72
2022-10-20T14:14:46.212Z,1.12
2022-10-20T14:17:23.615Z,1.25
2022-10-20T14:20:09.828Z,0.60
2022-10-20T14:22:45.041Z,0.93
2022-10-20T14:25:18.276Z,0.60
2022-10-20T14:27:53.546Z,0.67
2022-10-20T14:30:26.762Z,1.52
2022-10-20T14:32:59.062Z,0.90
2022-10-20T14:35:43.000Z,0.90
2022-10-20T14:38:23.776Z,1.22
2022-10-20T14:40:58.316Z,1.20
2022-10-20T14:43:39.651Z,1.20
2022-10-20T14:46:17.436Z,1.17
2022-10-20T14:48:51.914Z,1.00
2022-10-20T14:54:26.127Z,1.22
2022-10-20T14:57:03.837Z,1.20
2022-10-20T14:59:38.911Z,1.50
2022-10-20T15:02:13.814Z,1.25
2022-10-20T15:04:47.132Z,1.35
2022-10-20T15:07:30.918Z,0.72
2022-10-20T15:10:12.456Z,2.22
2022-10-20T15:12:49.062Z,1.25
2022-10-20T15:15:27.151Z,1.10
2022-10-20T15:18:11.158Z,1.10
2022-10-20T15:20:49.708Z,1.27
2022-10-20T15:23:24.457Z,1.40
2022-10-20T15:25:58.970Z,1.27
2022-10-20T15:28:48.840Z,1.37
2022-10-20T15:31:31.865Z,1.07
2022-10-20T15:34:03.818Z,1.00
2022-10-20T15:36:41.866Z,1.40
2022-10-20T15:39:12.283Z,1.67
2022-10-20T15:41:44.210Z,1.60
2022-10-20T15:44:23.443Z,1.02
2022-10-20T15:46:55.562Z,2.00
2022-10-20T15:49:27.480Z,1.57
2022-10-20T15:51:59.646Z,1.40
2022-10-20T15:54:31.917Z,1.60
2022-10-20T15:57:04.030Z,1.40
2022-10-20T15:59:36.782Z,1.65
2022-10-20T16:02:12.189Z,1.47
2022-10-20T16:04:44.194Z,2.17
2022-10-20T16:07:16.238Z,1.60
2022-10-20T16:09:48.193Z,1.82
2022-10-20T16:12:20.105Z,1.60
2022-10-20T16:14:52.177Z,1.90
2022-10-20T16:17:24.417Z,2.40
2022-10-20T16:19:56.552Z,1.70
2022-10-20T16:22:29.400Z,1.65
2022-10-20T16:25:01.713Z,1.45
2022-10-20T16:27:35.240Z,2.40
2022-10-20T16:30:08.769Z,1.70
2022-10-20T16:32:41.600Z,1.40
2022-10-20T16:35:13.653Z,1.65
2022-10-20T16:37:45.613Z,1.15
2022-10-20T16:40:17.772Z,1.12
2022-10-20T16:42:49.908Z,1.32
2022-10-20T16:47:55.079Z,1.60
2022-10-20T16:50:26.982Z,1.60
2022-10-20T16:52:58.913Z,1.15
2022-10-20T16:55:30.916Z,1.25
2022-10-20T16:58:02.827Z,1.20
2022-10-20T17:00:34.995Z,1.32
2022-10-20T17:03:06.937Z,1.72
2022-10-20T17:05:38.990Z,1.90
2022-10-20T17:08:11.164Z,1.60
2022-10-20T17:10:43.417Z,1.42
2022-10-20T17:13:15.710Z,1.60
2022-10-20T17:15:47.874Z,2.40
2022-10-20T17:18:19.835Z,1.90
2022-10-20T17:20:55.972Z,1.67
2022-10-20T17:23:28.540Z,1.62
2022-10-20T17:26:02.524Z,1.20
2022-10-20T17:28:36.892Z,1.32
2022-10-20T17:33:40.758Z,1.52
2022-10-20T17:36:13.617Z,1.37
2022-10-20T17:38:46.025Z,1.40
2022-10-20T17:41:18.112Z,1.10
2022-10-20T17:43:50.099Z,1.52
2022-10-20T17:46:22.784Z,1.65
2022-10-20T17:48:54.771Z,2.00
2022-10-20T17:51:30.353Z,1.77
2022-10-20T17:54:01.414Z,1.90
2022-10-20T17:56:40.283Z,1.87
2022-10-20T18:01:44.666Z,2.52
2022-10-20T18:04:18.891Z,2.00
2022-10-20T18:06:50.883Z,1.80
2022-10-20T18:09:22.876Z,2.37
2022-10-20T18:11:54.973Z,1.85
2022-10-20T18:14:27.154Z,2.70
2022-10-20T18:16:59.549Z,2.05
2022-10-20T18:19:31.487Z,2.20
2022-10-20T18:22:03.758Z,2.35
2022-10-20T18:24:37.282Z,1.85
2022-10-20T18:27:09.376Z,1.60
2022-10-20T18:29:41.349Z,2.17
2022-10-20T18:32:13.490Z,1.60
2022-10-20T18:34:46.731Z,1.90
2022-10-20T18:37:19.535Z,1.80
2022-10-20T18:39:51.542Z,2.20
2022-10-20T18:42:23.647Z,1.90
2022-10-20T18:44:55.660Z,1.92
2022-10-20T18:47:27.618Z,2.30
2022-10-20T18:49:59.386Z,1.40
2022-10-20T18:52:31.871Z,1.75
2022-10-20T18:55:04.336Z,2.10
2022-10-20T18:57:38.237Z,1.77
2022-10-20T19:00:11.425Z,2.22
2022-10-20T19:02:43.536Z,1.92
2022-10-20T19:05:15.751Z,2.15
2022-10-20T19:07:47.854Z,2.62
2022-10-20T19:10:20.096Z,1.87
2022-10-20T19:12:52.104Z,2.40
2022-10-20T19:15:24.011Z,2.15
2022-10-20T19:18:00.783Z,2.40
2022-10-20T19:20:31.656Z,2.08
2022-10-20T19:23:04.414Z,2.02
2022-10-20T19:25:36.326Z,2.20
2022-10-20T19:28:09.901Z,2.00
2022-10-20T19:30:41.908Z,2.80
2022-10-20T19:33:13.765Z,2.67
2022-10-20T19:35:45.853Z,2.05
2022-10-20T19:38:18.328Z,2.35
2022-10-20T19:40:50.318Z,2.17
2022-10-20T19:43:22.613Z,1.50
2022-10-20T19:45:55.769Z,1.87
2022-10-20T19:48:28.154Z,2.02
2022-10-20T19:51:00.467Z,2.10
2022-10-20T19:53:32.494Z,2.50
2022-10-20T19:56:04.900Z,1.90
2022-10-20T19:58:41.461Z,2.52
2022-10-20T20:01:13.063Z,2.42
2022-10-20T20:03:45.125Z,1.52
2022-10-20T20:06:20.299Z,1.20
2022-10-20T20:08:55.270Z,1.30
2022-10-20T20:11:30.858Z,1.15
2022-10-20T20:14:08.265Z,1.10
2022-10-20T20:16:41.444Z,1.05
2022-10-20T20:19:14.560Z,1.70
2022-10-20T20:21:46.825Z,0.95
2022-10-20T20:24:18.715Z,1.02
2022-10-20T20:26:50.620Z,1.10
2022-10-20T20:29:22.609Z,1.22
2022-10-20T20:31:54.548Z,1.42
2022-10-20T20:34:26.457Z,1.30
2022-10-20T20:36:58.420Z,1.42
2022-10-20T20:39:30.466Z,1.10
2022-10-20T20:42:02.346Z,1.67
2022-10-20T20:44:34.510Z,1.77
2022-10-20T20:47:06.769Z,1.75
2022-10-20T20:49:38.767Z,1.65
2022-10-20T20:52:10.659Z,1.50
2022-10-20T20:54:42.812Z,1.57
2022-10-20T20:57:14.860Z,2.15
2022-10-20T20:59:47.080Z,1.90
2022-10-20T21:02:19.076Z,1.70
2022-10-20T21:04:50.975Z,1.80
2022-10-20T21:07:23.025Z,1.52
2022-10-20T21:09:54.947Z,1.98
2022-10-20T21:12:29.625Z,1.77
2022-10-20T21:15:01.691Z,2.20
2022-10-20T21:17:33.648Z,4.15
2022-10-20T21:20:05.857Z,1.80
2022-10-20T21:22:38.012Z,1.77
2022-10-20T21:25:10.178Z,2.25
2022-10-20T21:27:42.054Z,1.90
2022-10-20T21:30:13.898Z,2.08
2022-10-20T21:32:45.764Z,2.05
2022-10-20T21:35:17.918Z,1.70
2022-10-20T21:37:49.932Z,1.60
2022-10-20T21:40:21.862Z,1.80
2022-10-20T21:42:53.887Z,1.77
2022-10-20T21:45:26.022Z,1.42
2022-10-20T21:47:58.169Z,1.42
2022-10-20T21:50:30.048Z,1.87
2022-10-20T21:53:02.271Z,1.82
2022-10-20T21:55:36.144Z,1.40
2022-10-20T21:58:08.159Z,1.27
2022-10-20T22:00:40.111Z,1.30
2022-10-20T22:03:12.015Z,2.12
2022-10-20T22:05:43.870Z,2.30
2022-10-20T22:08:15.786Z,2.10
2022-10-20T22:10:47.863Z,1.60
2022-10-20T22:13:19.893Z,2.08
2022-10-20T22:15:51.815Z,2.00
2022-10-20T22:18:23.960Z,2.37
2022-10-20T22:20:55.847Z,1.45
2022-10-20T22:23:27.944Z,2.50
2022-10-20T22:26:00.133Z,1.60
2022-10-20T22:28:32.612Z,1.60
2022-10-20T22:31:12.477Z,1.72
2022-10-20T22:33:43.816Z,1.80
2022-10-20T22:36:15.853Z,2.25
2022-10-20T22:38:48.138Z,1.60
2022-10-20T22:41:20.000Z,1.70
2022-10-20T22:43:52.055Z,1.55
2022-10-20T22:46:24.023Z,1.50
2022-10-20T22:48:56.066Z,1.50
2022-10-20T22:51:28.040Z,1.55
2022-10-20T22:53:59.977Z,1.90
2022-10-20T22:56:31.805Z,1.60
2022-10-20T22:59:04.061Z,1.60
2022-10-20T23:01:36.105Z,1.80
2022-10-20T23:04:08.086Z,2.02
2022-10-20T23:06:41.311Z,2.70
2022-10-20T23:09:13.472Z,1.63
2022-10-20T23:11:45.495Z,1.95
2022-10-20T23:14:17.595Z,2.90
2022-10-20T23:16:49.748Z,2.37
2022-10-20T23:19:21.753Z,2.17
2022-10-20T23:21:53.722Z,1.60
2022-10-20T23:24:26.024Z,2.50
2022-10-20T23:26:58.596Z,2.67
2022-10-20T23:29:30.624Z,2.20
2022-10-20T23:32:02.749Z,3.85
2022-10-20T23:37:06.600Z,2.20
2022-10-20T23:39:38.406Z,2.65
2022-10-20T23:42:10.313Z,2.33
2022-10-20T23:44:43.229Z,2.10
2022-10-20T23:47:15.299Z,2.35
2022-10-20T23:49:47.105Z,2.25
2022-10-20T23:52:19.302Z,2.35
2022-10-20T23:54:51.230Z,2.22
2022-10-20T23:57:23.403Z,2.15
2022-10-20T23:59:55.397Z,2.35
